createdAt,value
2018-07-13T00:00:33.940Z,14.50
2018-07-13T00:03:04.658Z,14.50
2018-07-13T00:05:34.847Z,14.40
2018-07-13T00:08:05.437Z,14.40
2018-07-13T00:10:44.152Z,14.50
2018-07-13T00:13:15.218Z,14.50
2018-07-13T00:16:03.783Z,14.50
2018-07-13T00:18:34.121Z,14.40
2018-07-13T00:21:04.287Z,14.40
2018-07-13T00:23:34.906Z,14.40
2018-07-13T00:26:05.194Z,14.50
2018-07-13T00:28:35.377Z,14.40
2018-07-13T00:31:05.567Z,14.30
2018-07-13T00:33:36.198Z,14.00
2018-07-13T00:36:06.622Z,14.00
2018-07-13T00:38:37.299Z,13.80
2018-07-13T00:41:07.487Z,13.90
2018-07-13T00:43:38.192Z,14.00
2018-07-13T00:46:08.802Z,13.80
2018-07-13T00:48:38.998Z,13.70
2018-07-13T00:51:09.178Z,13.70
2018-07-13T00:53:39.428Z,13.60
2018-07-13T00:56:09.671Z,13.70
2018-07-13T00:58:40.251Z,13.80
2018-07-13T01:01:10.468Z,13.60
2018-07-13T01:03:40.706Z,13.70
2018-07-13T01:06:10.927Z,13.70
2018-07-13T01:08:41.227Z,13.40
2018-07-13T01:11:11.471Z,13.50
2018-07-13T01:13:41.654Z,13.30
2018-07-13T01:16:11.945Z,13.50
2018-07-13T01:18:42.200Z,13.50
2018-07-13T01:21:12.748Z,13.50
2018-07-13T01:23:42.966Z,13.60
2018-07-13T01:26:13.256Z,13.30
2018-07-13T01:28:43.446Z,13.70
2018-07-13T01:31:13.671Z,13.80
2018-07-13T01:33:43.938Z,13.80
2018-07-13T01:36:14.231Z,13.60
2018-07-13T01:38:46.599Z,13.60
2018-07-13T01:41:16.917Z,13.70
2018-07-13T01:43:47.147Z,13.70
2018-07-13T01:46:17.639Z,13.80
2018-07-13T01:51:48.259Z,13.70
2018-07-13T01:54:28.227Z,13.70
2018-07-13T01:56:58.648Z,13.80
2018-07-13T01:59:28.886Z,13.80
2018-07-13T02:01:59.183Z,13.80
2018-07-13T02:04:29.526Z,13.70
2018-07-13T02:06:59.791Z,13.80
2018-07-13T02:09:30.035Z,13.80
2018-07-13T02:12:00.234Z,13.80
2018-07-13T02:14:30.484Z,13.80
2018-07-13T02:17:00.683Z,13.80
2018-07-13T02:19:30.954Z,13.90
2018-07-13T02:22:01.231Z,13.70
2018-07-13T02:24:31.510Z,13.70
2018-07-13T02:27:01.727Z,13.60
2018-07-13T02:29:32.050Z,13.70
2018-07-13T02:32:02.310Z,13.80
2018-07-13T02:34:32.611Z,13.80
2018-07-13T02:37:02.848Z,13.60
2018-07-13T02:39:33.138Z,13.50
2018-07-13T02:42:03.564Z,13.40
2018-07-13T02:44:33.866Z,13.40
2018-07-13T02:47:04.514Z,13.50
2018-07-13T02:49:35.011Z,13.50
2018-07-13T02:52:05.345Z,13.30
2018-07-13T02:54:35.703Z,13.40
2018-07-13T02:57:06.043Z,13.40
2018-07-13T02:59:36.404Z,13.30
2018-07-13T03:02:07.287Z,13.30
2018-07-13T03:04:37.906Z,13.30
2018-07-13T03:07:08.390Z,13.40
2018-07-13T03:09:38.876Z,13.50
2018-07-13T03:12:09.613Z,13.40
2018-07-13T03:14:39.945Z,13.30
2018-07-13T03:17:10.224Z,13.40
2018-07-13T03:19:40.811Z,13.50
2018-07-13T03:22:11.111Z,13.40
2018-07-13T03:24:41.386Z,13.50
2018-07-13T03:27:11.743Z,13.50
2018-07-13T03:29:42.061Z,13.50
2018-07-13T03:32:12.376Z,13.50
2018-07-13T03:34:42.688Z,13.50
2018-07-13T03:37:13.263Z,13.50
2018-07-13T03:39:43.550Z,13.50
2018-07-13T03:42:13.827Z,13.50
2018-07-13T03:44:44.146Z,13.50
2018-07-13T03:47:14.424Z,13.60
2018-07-13T03:49:44.718Z,13.50
2018-07-13T03:52:14.992Z,13.40
2018-07-13T03:54:45.286Z,13.40
2018-07-13T03:57:15.583Z,13.50
2018-07-13T03:59:45.902Z,13.50
2018-07-13T04:02:16.172Z,13.50
2018-07-13T04:04:46.610Z,13.60
2018-07-13T04:07:17.059Z,13.70
2018-07-13T04:09:47.950Z,13.70
2018-07-13T04:12:18.362Z,13.70
2018-07-13T04:14:48.753Z,13.80
2018-07-13T04:17:19.003Z,13.80
2018-07-13T04:19:49.362Z,13.90
2018-07-13T04:22:19.793Z,13.80
2018-07-13T04:24:50.338Z,13.90
2018-07-13T04:27:20.780Z,13.90
2018-07-13T04:29:51.371Z,13.90
2018-07-13T04:32:21.750Z,14.00
2018-07-13T04:34:52.320Z,14.00
2018-07-13T04:37:22.682Z,14.00
2018-07-13T04:39:53.064Z,14.20
2018-07-13T04:42:23.843Z,14.20
2018-07-13T04:44:54.206Z,14.20
2018-07-13T04:47:24.924Z,14.30
2018-07-13T04:49:55.282Z,14.30
2018-07-13T04:52:26.084Z,14.30
2018-07-13T04:54:56.608Z,14.40
2018-07-13T04:57:26.926Z,14.50
2018-07-13T04:59:57.394Z,14.20
2018-07-13T05:02:28.119Z,14.40
2018-07-13T05:04:58.518Z,14.20
2018-07-13T05:07:29.319Z,14.40
2018-07-13T05:09:59.734Z,14.70
2018-07-13T05:12:30.236Z,14.80
2018-07-13T05:15:00.951Z,15.00
2018-07-13T05:17:32.742Z,15.10
2018-07-13T05:20:04.667Z,15.10
2018-07-13T05:22:36.806Z,15.20
2018-07-13T05:25:08.510Z,15.30
2018-07-13T05:27:40.896Z,15.40
2018-07-13T05:30:11.228Z,15.60
2018-07-13T05:32:41.863Z,15.70
2018-07-13T05:35:12.046Z,15.80
2018-07-13T05:37:42.427Z,15.90
2018-07-13T05:40:12.927Z,16.00
2018-07-13T05:42:44.150Z,16.10
2018-07-13T05:45:14.951Z,16.30
2018-07-13T05:47:45.469Z,16.40
2018-07-13T05:50:15.851Z,16.50
2018-07-13T05:52:46.327Z,16.70
2018-07-13T05:55:17.064Z,16.80
2018-07-13T05:57:47.792Z,16.90
2018-07-13T06:00:18.150Z,17.10
2018-07-13T06:02:48.508Z,17.00
2018-07-13T06:05:19.119Z,16.90
2018-07-13T06:07:49.483Z,16.90
2018-07-13T06:10:19.794Z,17.40
2018-07-13T06:12:50.518Z,17.80
2018-07-13T06:15:20.983Z,17.90
2018-07-13T06:17:51.348Z,18.00
2018-07-13T06:20:21.739Z,18.60
2018-07-13T06:22:52.096Z,18.90
2018-07-13T06:25:22.378Z,19.00
2018-07-13T06:27:52.987Z,19.10
2018-07-13T06:30:23.476Z,18.90
2018-07-13T06:32:53.850Z,19.30
2018-07-13T06:35:24.146Z,19.60
2018-07-13T06:37:54.675Z,19.80
2018-07-13T06:40:25.039Z,20.00
2018-07-13T06:42:55.278Z,20.30
2018-07-13T06:45:25.862Z,20.50
2018-07-13T06:48:04.489Z,20.70
2018-07-13T06:50:36.250Z,20.80
2018-07-13T06:53:06.763Z,21.00
2018-07-13T06:55:37.156Z,21.10
2018-07-13T06:58:24.714Z,21.30
2018-07-13T07:01:00.496Z,21.40
2018-07-13T07:03:32.406Z,21.60
2018-07-13T07:06:10.369Z,21.40
2018-07-13T07:08:47.377Z,21.90
2018-07-13T07:11:18.568Z,22.10
2018-07-13T07:13:48.842Z,22.30
2018-07-13T07:16:19.210Z,22.60
2018-07-13T07:18:49.655Z,22.80
2018-07-13T07:21:19.973Z,23.10
2018-07-13T07:23:50.257Z,23.20
2018-07-13T07:26:20.678Z,23.30
2018-07-13T07:28:50.971Z,23.60
2018-07-13T07:31:21.344Z,23.70
2018-07-13T07:33:51.635Z,24.20
2018-07-13T07:36:21.951Z,24.10
2018-07-13T07:38:52.309Z,24.70
2018-07-13T07:41:22.699Z,24.90
2018-07-13T07:43:53.302Z,25.30
2018-07-13T07:46:23.651Z,25.50
2018-07-13T07:48:53.891Z,25.70
2018-07-13T07:51:24.218Z,25.80
2018-07-13T07:53:54.674Z,25.80
2018-07-13T07:56:24.990Z,25.60
2018-07-13T07:58:55.383Z,25.90
2018-07-13T08:01:25.725Z,26.20
2018-07-13T08:03:55.988Z,25.80
2018-07-13T08:06:26.955Z,26.20
2018-07-13T08:08:57.187Z,26.20
2018-07-13T08:11:27.867Z,26.10
2018-07-13T08:13:58.897Z,25.70
2018-07-13T08:16:28.910Z,26.10
2018-07-13T08:18:59.287Z,26.30
2018-07-13T08:21:31.818Z,26.50
2018-07-13T08:24:03.811Z,26.40
2018-07-13T08:26:34.918Z,26.70
2018-07-13T08:29:05.375Z,26.60
2018-07-13T08:31:36.150Z,26.80
2018-07-13T08:34:06.674Z,27.10
2018-07-13T08:36:37.186Z,27.20
2018-07-13T08:39:08.517Z,27.40
2018-07-13T08:41:38.886Z,27.60
2018-07-13T08:44:09.264Z,27.90
2018-07-13T08:46:39.512Z,28.10
2018-07-13T08:49:09.842Z,28.10
2018-07-13T08:51:40.315Z,28.00
2018-07-13T08:54:10.671Z,27.90
2018-07-13T08:56:41.791Z,28.00
2018-07-13T08:59:13.060Z,28.30
2018-07-13T09:01:43.417Z,28.30
2018-07-13T09:04:15.807Z,28.30
2018-07-13T09:06:47.908Z,28.20
2018-07-13T09:09:22.327Z,27.80
2018-07-13T09:11:53.553Z,28.50
2018-07-13T09:14:24.072Z,28.40
2018-07-13T09:16:54.965Z,28.40
2018-07-13T09:19:25.983Z,27.90
2018-07-13T09:21:56.612Z,28.10
2018-07-13T09:24:27.330Z,28.50
2018-07-13T09:26:58.098Z,28.40
2018-07-13T09:29:28.833Z,28.80
2018-07-13T09:32:00.044Z,28.90
2018-07-13T09:34:30.545Z,28.50
2018-07-13T09:37:01.206Z,28.80
2018-07-13T09:39:31.806Z,29.30
2018-07-13T09:42:03.105Z,29.20
2018-07-13T09:44:33.910Z,29.30
2018-07-13T09:47:05.758Z,29.40
2018-07-13T09:49:36.820Z,29.60
2018-07-13T09:52:07.703Z,29.90
2018-07-13T09:54:38.524Z,30.20
2018-07-13T09:57:08.950Z,30.30
2018-07-13T09:59:39.347Z,30.00
2018-07-13T10:02:10.412Z,29.90
2018-07-13T10:04:40.802Z,29.80
2018-07-13T10:07:11.126Z,30.00
2018-07-13T10:09:41.501Z,29.80
2018-07-13T10:12:13.103Z,30.00
2018-07-13T10:14:44.363Z,30.80
2018-07-13T10:17:15.721Z,30.70
2018-07-13T10:19:46.803Z,31.10
2018-07-13T10:22:21.927Z,31.00
2018-07-13T10:24:55.320Z,30.70
2018-07-13T10:27:29.860Z,30.90
2018-07-13T10:30:02.543Z,31.00
2018-07-13T10:32:33.250Z,31.50
2018-07-13T10:35:06.628Z,31.50
2018-07-13T10:37:37.096Z,31.40
2018-07-13T10:40:07.395Z,30.90
2018-07-13T10:42:37.730Z,31.50
2018-07-13T10:45:10.778Z,31.60
2018-07-13T10:47:43.373Z,32.00
2018-07-13T10:50:15.276Z,32.50
2018-07-13T10:52:47.389Z,32.90
2018-07-13T10:55:19.589Z,32.80
2018-07-13T10:57:52.688Z,32.70
2018-07-13T11:00:23.147Z,32.40
2018-07-13T11:02:54.523Z,31.70
2018-07-13T11:05:25.723Z,31.00
2018-07-13T11:07:56.987Z,30.50
2018-07-13T11:10:28.847Z,30.20
2018-07-13T11:13:01.546Z,29.60
2018-07-13T11:15:33.183Z,29.40
2018-07-13T11:18:04.914Z,29.20
2018-07-13T11:20:36.423Z,29.00
2018-07-13T11:23:09.079Z,29.00
2018-07-13T11:25:41.134Z,29.00
2018-07-13T11:28:12.765Z,28.90
2018-07-13T11:30:43.935Z,29.00
2018-07-13T11:33:16.311Z,29.30
2018-07-13T11:35:48.976Z,30.30
2018-07-13T11:38:20.999Z,31.10
2018-07-13T11:40:54.188Z,32.00
2018-07-13T11:43:27.078Z,32.30
2018-07-13T11:45:58.162Z,32.80
2018-07-13T11:48:32.027Z,32.90
2018-07-13T11:51:06.225Z,34.30
2018-07-13T11:53:39.694Z,34.40
2018-07-13T11:56:13.358Z,35.00
2018-07-13T11:58:48.591Z,35.00
2018-07-13T12:01:21.730Z,34.00
2018-07-13T12:03:56.640Z,33.60
2018-07-13T12:06:28.111Z,33.20
2018-07-13T12:09:02.782Z,31.90
2018-07-13T12:11:34.849Z,31.80
2018-07-13T12:14:06.446Z,31.40
2018-07-13T12:16:37.636Z,31.60
2018-07-13T12:19:09.036Z,32.80
2018-07-13T12:21:39.874Z,33.30
2018-07-13T12:24:10.437Z,33.30
2018-07-13T12:26:40.972Z,32.40
2018-07-13T12:29:11.815Z,31.80
2018-07-13T12:31:42.888Z,31.50
2018-07-13T12:34:14.162Z,31.10
2018-07-13T12:36:46.495Z,30.10
2018-07-13T12:39:19.382Z,30.30
2018-07-13T12:41:49.809Z,30.10
2018-07-13T12:44:20.083Z,30.30
2018-07-13T12:46:50.904Z,30.30
2018-07-13T12:49:21.192Z,30.20
2018-07-13T12:51:51.994Z,30.40
2018-07-13T12:54:22.851Z,30.20
2018-07-13T12:56:53.431Z,29.90
2018-07-13T12:59:23.734Z,30.10
2018-07-13T13:01:55.041Z,30.10
2018-07-13T13:04:26.064Z,29.80
2018-07-13T13:06:56.559Z,29.90
2018-07-13T13:09:27.000Z,29.80
2018-07-13T13:11:57.433Z,30.20
2018-07-13T13:14:28.671Z,32.10
2018-07-13T13:16:59.519Z,32.40
2018-07-13T13:19:30.107Z,32.10
2018-07-13T13:22:00.806Z,32.00
2018-07-13T13:24:33.502Z,31.80
2018-07-13T13:27:04.173Z,32.10
2018-07-13T13:29:35.151Z,33.40
2018-07-13T13:32:06.226Z,33.90
2018-07-13T13:34:37.052Z,35.40
2018-07-13T13:37:08.059Z,36.10
2018-07-13T13:39:38.599Z,36.40
2018-07-13T13:42:10.586Z,36.70
2018-07-13T13:44:43.810Z,36.90
2018-07-13T13:47:16.020Z,36.50
2018-07-13T13:49:48.993Z,37.30
2018-07-13T13:52:19.592Z,37.50
2018-07-13T13:54:49.915Z,37.70
2018-07-13T13:57:20.876Z,37.80
2018-07-13T13:59:51.452Z,37.70
2018-07-13T14:02:22.447Z,37.50
2018-07-13T14:04:52.989Z,37.80
2018-07-13T14:07:23.524Z,36.70
2018-07-13T14:09:54.249Z,36.90
2018-07-13T14:12:26.990Z,37.30
2018-07-13T14:14:57.923Z,38.00
2018-07-13T14:17:29.501Z,38.50
2018-07-13T14:20:01.113Z,39.10
2018-07-13T14:22:32.990Z,38.90
2018-07-13T14:25:03.990Z,40.10
2018-07-13T14:27:34.866Z,40.10
2018-07-13T14:30:11.497Z,40.10
2018-07-13T14:32:44.550Z,39.80
2018-07-13T14:35:21.008Z,39.10
2018-07-13T14:37:51.844Z,39.00
2018-07-13T14:40:22.286Z,39.10
2018-07-13T14:42:53.413Z,38.10
2018-07-13T14:45:25.286Z,38.90
2018-07-13T14:47:55.787Z,38.80
2018-07-13T14:50:26.259Z,39.50
2018-07-13T14:52:56.642Z,38.30
2018-07-13T14:55:26.953Z,38.00
2018-07-13T14:57:57.292Z,37.80
2018-07-13T15:04:01.356Z,37.30
2018-07-13T15:06:31.670Z,36.00
2018-07-13T15:09:01.844Z,35.40
2018-07-13T15:11:32.299Z,34.50
2018-07-13T15:14:02.662Z,33.60
2018-07-13T15:16:32.894Z,32.80
2018-07-13T15:19:03.253Z,32.50
2018-07-13T15:21:33.689Z,31.70
2018-07-13T15:24:04.020Z,31.60
2018-07-13T15:26:34.982Z,31.70
2018-07-13T15:29:21.663Z,31.30
2018-07-13T15:31:52.755Z,31.00
2018-07-13T15:34:23.071Z,31.00
2018-07-13T15:36:53.510Z,30.80
2018-07-13T15:39:23.988Z,31.00
2018-07-13T15:41:54.424Z,31.50
2018-07-13T15:44:25.078Z,32.30
2018-07-13T15:46:55.473Z,32.70
2018-07-13T15:49:25.878Z,33.40
2018-07-13T15:51:56.534Z,34.30
2018-07-13T15:54:27.079Z,34.50
2018-07-13T15:56:57.866Z,34.20
2018-07-13T15:59:29.299Z,33.30
2018-07-13T16:02:00.220Z,32.80
2018-07-13T16:04:31.359Z,32.70
2018-07-13T16:07:02.190Z,32.10
2018-07-13T16:09:33.561Z,31.90
2018-07-13T16:12:04.165Z,31.60
2018-07-13T16:14:34.974Z,31.00
2018-07-13T16:17:06.612Z,30.90
2018-07-13T16:19:37.667Z,30.30
2018-07-13T16:22:09.220Z,30.40
2018-07-13T16:24:39.855Z,31.00
2018-07-13T16:27:11.346Z,31.80
2018-07-13T16:29:41.973Z,32.40
2018-07-13T16:32:13.657Z,32.30
2018-07-13T16:34:44.559Z,32.00
2018-07-13T16:37:14.885Z,31.80
2018-07-13T16:39:45.225Z,31.60
2018-07-13T16:42:16.220Z,31.10
2018-07-13T16:44:46.665Z,30.80
2018-07-13T16:47:17.706Z,30.60
2018-07-13T16:49:49.321Z,30.40
2018-07-13T16:52:20.097Z,30.40
2018-07-13T16:54:51.364Z,30.60
2018-07-13T16:57:22.188Z,30.60
2018-07-13T16:59:58.024Z,30.50
2018-07-13T17:02:32.512Z,30.50
2018-07-13T17:05:20.109Z,30.30
2018-07-13T17:08:24.001Z,29.90
2018-07-13T17:11:04.733Z,29.80
2018-07-13T17:13:37.110Z,29.70
2018-07-13T17:16:07.416Z,29.70
2018-07-13T17:18:37.970Z,29.70
2018-07-13T17:21:10.254Z,29.70
2018-07-13T17:23:41.159Z,29.70
2018-07-13T17:26:11.671Z,29.10
2018-07-13T17:28:42.065Z,28.90
2018-07-13T17:31:12.768Z,28.80
2018-07-13T17:33:43.576Z,28.70
2018-07-13T17:36:14.774Z,28.40
2018-07-13T17:40:09.970Z,28.30
2018-07-13T17:42:40.429Z,28.00
2018-07-13T17:45:11.177Z,27.50
2018-07-13T17:47:41.950Z,27.30
2018-07-13T17:50:14.785Z,27.00
2018-07-13T17:52:46.690Z,27.20
2018-07-13T17:55:17.285Z,26.70
2018-07-13T17:57:47.711Z,26.60
2018-07-13T18:00:18.170Z,26.30
2018-07-13T18:02:48.798Z,26.20
2018-07-13T18:05:19.210Z,25.80
2018-07-13T18:07:52.183Z,25.40
2018-07-13T18:15:02.179Z,25.30
2018-07-13T18:17:43.403Z,25.00
2018-07-13T18:20:13.703Z,24.70
2018-07-13T18:22:44.726Z,24.90
2018-07-13T18:25:15.002Z,24.40
2018-07-13T18:27:45.991Z,24.00
2018-07-13T18:30:17.083Z,24.10
2018-07-13T18:32:47.612Z,23.70
2018-07-13T18:35:19.363Z,23.60
2018-07-13T18:37:50.368Z,23.60
2018-07-13T18:40:22.647Z,23.60
2018-07-13T18:43:01.644Z,23.60
2018-07-13T18:45:38.831Z,23.80
2018-07-13T18:53:16.617Z,23.50
2018-07-13T18:55:47.838Z,23.10
2018-07-13T18:58:28.378Z,22.90
2018-07-13T19:00:59.964Z,22.70
2018-07-13T19:03:31.734Z,22.50
2018-07-13T19:06:12.242Z,22.80
2018-07-13T19:08:43.111Z,23.00
2018-07-13T19:16:22.534Z,22.80
2018-07-13T19:18:53.653Z,22.30
2018-07-13T19:21:25.693Z,22.00
2018-07-13T19:23:58.423Z,21.70
2018-07-13T19:26:28.813Z,21.60
2018-07-13T19:29:02.702Z,21.50
2018-07-13T19:31:36.425Z,21.60
2018-07-13T19:34:08.369Z,21.60
2018-07-13T19:36:38.861Z,21.70
2018-07-13T19:39:09.614Z,21.50
2018-07-13T19:41:39.915Z,21.20
2018-07-13T19:44:10.360Z,21.20
2018-07-13T19:46:40.789Z,21.30
2018-07-13T19:49:11.185Z,21.40
2018-07-13T19:51:42.015Z,21.20
2018-07-13T19:54:12.270Z,21.20
2018-07-13T19:56:42.554Z,21.30
2018-07-13T19:59:13.486Z,21.00
2018-07-13T20:01:44.538Z,21.00
2018-07-13T20:04:16.436Z,20.70
2018-07-13T20:06:48.823Z,20.50
2018-07-13T20:09:19.478Z,20.40
2018-07-13T20:11:52.142Z,20.50
2018-07-13T20:14:22.462Z,20.50
2018-07-13T20:16:54.359Z,20.40
2018-07-13T20:19:24.931Z,20.00
2018-07-13T20:21:55.889Z,20.10
2018-07-13T20:24:27.070Z,20.10
2018-07-13T20:26:59.326Z,20.10
2018-07-13T20:29:30.185Z,20.10
2018-07-13T20:32:01.011Z,19.70
2018-07-13T20:34:33.932Z,19.70
2018-07-13T20:37:04.998Z,19.60
2018-07-13T20:39:36.383Z,19.60
2018-07-13T20:42:07.730Z,19.60
2018-07-13T20:44:39.498Z,19.60
2018-07-13T20:47:10.118Z,19.40
2018-07-13T20:49:41.460Z,19.30
2018-07-13T20:52:12.753Z,19.50
2018-07-13T20:54:45.056Z,19.40
2018-07-13T20:57:15.502Z,19.40
2018-07-13T20:59:46.030Z,19.30
2018-07-13T21:02:16.526Z,19.00
2018-07-13T21:04:48.006Z,19.00
2018-07-13T21:07:19.404Z,19.00
2018-07-13T21:09:51.042Z,19.00
2018-07-13T21:12:23.026Z,18.90
2018-07-13T21:14:53.827Z,19.00
2018-07-13T21:17:26.455Z,19.00
2018-07-13T21:20:00.197Z,18.80
2018-07-13T21:22:33.399Z,18.70
2018-07-13T21:25:05.112Z,18.60
2018-07-13T21:27:36.553Z,18.30
2018-07-13T21:30:07.298Z,18.30
2018-07-13T21:32:38.704Z,18.40
2018-07-13T21:35:09.546Z,18.30
2018-07-13T21:37:41.729Z,18.30
2018-07-13T21:40:12.322Z,18.30
2018-07-13T21:42:43.211Z,18.10
2018-07-13T21:45:13.601Z,18.20
2018-07-13T21:47:46.074Z,18.00
2018-07-13T21:50:18.278Z,17.70
2018-07-13T21:52:49.395Z,17.70
2018-07-13T21:55:20.103Z,17.90
2018-07-13T21:57:52.390Z,17.90
2018-07-13T22:00:29.415Z,17.70
2018-07-13T22:03:00.719Z,17.80
2018-07-13T22:05:32.078Z,17.80
2018-07-13T22:08:02.763Z,17.80
2018-07-13T22:10:33.781Z,17.80
2018-07-13T22:13:05.312Z,17.70
2018-07-13T22:15:39.328Z,17.60
2018-07-13T22:18:10.567Z,17.60
2018-07-13T22:20:41.865Z,17.50
2018-07-13T22:23:13.235Z,17.60
2018-07-13T22:25:43.527Z,17.70
2018-07-13T22:28:14.490Z,17.70
2018-07-13T22:30:45.769Z,17.70
2018-07-13T22:33:17.987Z,17.60
2018-07-13T22:35:50.089Z,17.50
2018-07-13T22:38:22.233Z,17.40
2018-07-13T22:40:53.680Z,17.40
2018-07-13T22:43:25.064Z,17.40
2018-07-13T22:45:55.557Z,17.40
2018-07-13T22:48:26.859Z,17.40
2018-07-13T22:50:59.203Z,17.40
2018-07-13T22:53:30.628Z,17.20
2018-07-13T22:56:02.295Z,17.30
2018-07-13T22:58:33.676Z,17.20
2018-07-13T23:01:04.819Z,17.20
2018-07-13T23:03:36.016Z,17.30
2018-07-13T23:06:07.789Z,17.40
2018-07-13T23:08:38.776Z,17.50
2018-07-13T23:11:09.086Z,17.60
2018-07-13T23:13:40.000Z,17.60
2018-07-13T23:16:10.234Z,17.70
2018-07-13T23:18:40.978Z,17.70
2018-07-13T23:21:11.806Z,17.70
2018-07-13T23:23:42.151Z,17.70
2018-07-13T23:26:12.510Z,17.60
2018-07-13T23:28:43.550Z,17.60
2018-07-13T23:31:13.890Z,17.40
2018-07-13T23:33:44.428Z,17.50
2018-07-13T23:36:14.926Z,17.60
2018-07-13T23:38:45.711Z,17.60
2018-07-13T23:41:16.039Z,17.60
2018-07-13T23:43:46.818Z,17.50
2018-07-13T23:46:17.246Z,17.50
2018-07-13T23:48:47.899Z,17.40
2018-07-13T23:51:21.154Z,17.40
2018-07-13T23:53:52.697Z,17.40
2018-07-13T23:56:24.027Z,17.50
2018-07-13T23:58:55.617Z,17.40
